sensor_id;sensor_type;location;lat;lon;timestamp;pressure;altitude;pressure_sealevel;temperature;humidity
45285;BME280;31026;43.780;25.948;2023-12-20T00:01:27;101201.25;;;17.46;63.59
45285;BME280;31026;43.780;25.948;2023-12-20T00:03:55;101189.00;;;17.44;63.62
45285;BME280;31026;43.780;25.948;2023-12-20T00:06:26;101175.88;;;17.41;63.71
45285;BME280;31026;43.780;25.948;2023-12-20T00:08:54;101184.00;;;17.39;63.89
45285;BME280;31026;43.780;25.948;2023-12-20T00:11:23;101174.84;;;17.66;62.97
45285;BME280;31026;43.780;25.948;2023-12-20T00:13:51;101167.44;;;18.05;62.13
45285;BME280;31026;43.780;25.948;2023-12-20T00:16:20;101190.31;;;18.20;61.48
45285;BME280;31026;43.780;25.948;2023-12-20T00:18:48;101172.88;;;17.92;61.99
45285;BME280;31026;43.780;25.948;2023-12-20T00:21:16;101186.91;;;17.72;62.53
45285;BME280;31026;43.780;25.948;2023-12-20T00:23:47;101181.91;;;17.67;62.87
45285;BME280;31026;43.780;25.948;2023-12-20T00:26:15;101183.13;;;17.63;62.85
45285;BME280;31026;43.780;25.948;2023-12-20T00:28:44;101189.38;;;17.50;63.10
45285;BME280;31026;43.780;25.948;2023-12-20T00:31:12;101182.34;;;17.49;63.26
45285;BME280;31026;43.780;25.948;2023-12-20T00:33:40;101169.22;;;17.58;63.03
45285;BME280;31026;43.780;25.948;2023-12-20T00:36:11;101162.25;;;17.79;62.47
45285;BME280;31026;43.780;25.948;2023-12-20T00:38:39;101177.41;;;18.14;61.52
45285;BME280;31026;43.780;25.948;2023-12-20T00:41:10;101169.13;;;18.06;61.83
45285;BME280;31026;43.780;25.948;2023-12-20T00:43:39;101158.72;;;17.79;62.14
45285;BME280;31026;43.780;25.948;2023-12-20T00:46:07;101160.16;;;17.72;62.73
45285;BME280;31026;43.780;25.948;2023-12-20T00:48:35;101152.97;;;17.61;62.79
45285;BME280;31026;43.780;25.948;2023-12-20T00:51:04;101157.34;;;17.62;62.95
45285;BME280;31026;43.780;25.948;2023-12-20T00:53:32;101167.66;;;17.55;62.96
45285;BME280;31026;43.780;25.948;2023-12-20T00:56:00;101143.91;;;17.39;63.46
45285;BME280;31026;43.780;25.948;2023-12-20T00:58:31;101129.38;;;17.66;62.59
45285;BME280;31026;43.780;25.948;2023-12-20T01:00:59;101131.41;;;17.98;61.96
45285;BME280;31026;43.780;25.948;2023-12-20T01:03:28;101116.59;;;18.05;61.60
45285;BME280;31026;43.780;25.948;2023-12-20T01:05:56;101115.59;;;17.83;61.96
45285;BME280;31026;43.780;25.948;2023-12-20T01:08:24;101121.88;;;17.71;62.46
45285;BME280;31026;43.780;25.948;2023-12-20T01:10:53;101113.91;;;17.58;62.61
45285;BME280;31026;43.780;25.948;2023-12-20T01:13:21;101107.34;;;17.51;62.97
45285;BME280;31026;43.780;25.948;2023-12-20T01:15:52;101101.00;;;17.41;63.08
45285;BME280;31026;43.780;25.948;2023-12-20T01:18:20;101112.44;;;17.43;63.30
45285;BME280;31026;43.780;25.948;2023-12-20T01:20:49;101109.78;;;17.43;63.08
45285;BME280;31026;43.780;25.948;2023-12-20T01:23:17;101093.84;;;17.41;63.10
45285;BME280;31026;43.780;25.948;2023-12-20T01:25:45;101094.53;;;17.32;63.66
45285;BME280;31026;43.780;25.948;2023-12-20T01:28:14;101093.81;;;17.77;62.36
45285;BME280;31026;43.780;25.948;2023-12-20T01:30:42;101074.41;;;18.08;61.48
45285;BME280;31026;43.780;25.948;2023-12-20T01:33:13;101052.47;;;18.03;61.35
45285;BME280;31026;43.780;25.948;2023-12-20T01:35:41;101061.44;;;17.80;61.82
45285;BME280;31026;43.780;25.948;2023-12-20T01:38:10;101052.56;;;17.68;62.49
45285;BME280;31026;43.780;25.948;2023-12-20T01:40:38;101047.78;;;17.60;62.70
45285;BME280;31026;43.780;25.948;2023-12-20T01:43:07;101050.47;;;17.49;62.78
45285;BME280;31026;43.780;25.948;2023-12-20T01:45:37;101042.06;;;17.42;62.96
45285;BME280;31026;43.780;25.948;2023-12-20T01:48:06;101041.31;;;17.29;63.39
45285;BME280;31026;43.780;25.948;2023-12-20T01:50:37;101027.88;;;17.53;62.82
45285;BME280;31026;43.780;25.948;2023-12-20T01:53:07;101032.56;;;17.85;61.99
45285;BME280;31026;43.780;25.948;2023-12-20T01:55:36;101038.97;;;18.16;61.09
45285;BME280;31026;43.780;25.948;2023-12-20T01:58:06;101028.50;;;18.24;61.01
45285;BME280;31026;43.780;25.948;2023-12-20T02:00:35;101020.97;;;18.07;61.23
45285;BME280;31026;43.780;25.948;2023-12-20T02:03:04;101014.63;;;17.74;61.83
45285;BME280;31026;43.780;25.948;2023-12-20T02:05:33;101024.13;;;17.67;62.37
45285;BME280;31026;43.780;25.948;2023-12-20T02:08:05;101028.00;;;17.63;62.47
45285;BME280;31026;43.780;25.948;2023-12-20T02:10:34;101037.47;;;17.56;62.60
45285;BME280;31026;43.780;25.948;2023-12-20T02:13:02;101015.81;;;17.36;62.96
45285;BME280;31026;43.780;25.948;2023-12-20T02:15:31;101017.47;;;17.26;63.29
45285;BME280;31026;43.780;25.948;2023-12-20T02:17:59;101011.34;;;17.59;62.64
45285;BME280;31026;43.780;25.948;2023-12-20T02:20:28;101001.28;;;17.97;61.67
45285;BME280;31026;43.780;25.948;2023-12-20T02:22:59;101009.78;;;18.02;61.36
45285;BME280;31026;43.780;25.948;2023-12-20T02:25:27;101009.78;;;17.79;61.37
45285;BME280;31026;43.780;25.948;2023-12-20T02:27:55;100985.22;;;17.63;62.25
45285;BME280;31026;43.780;25.948;2023-12-20T02:30:24;100990.28;;;17.55;62.56
45285;BME280;31026;43.780;25.948;2023-12-20T02:32:52;100988.13;;;17.37;63.14
45285;BME280;31026;43.780;25.948;2023-12-20T02:35:21;100992.38;;;17.74;62.48
45285;BME280;31026;43.780;25.948;2023-12-20T02:37:49;100977.78;;;18.55;60.29
45285;BME280;31026;43.780;25.948;2023-12-20T02:40:20;100979.94;;;19.36;58.62
45285;BME280;31026;43.780;25.948;2023-12-20T02:42:49;100970.91;;;19.67;57.43
45285;BME280;31026;43.780;25.948;2023-12-20T02:45:17;100980.63;;;19.28;58.83
45285;BME280;31026;43.780;25.948;2023-12-20T02:47:45;100971.16;;;19.24;59.06
45285;BME280;31026;43.780;25.948;2023-12-20T02:50:11;100964.09;;;19.54;58.26
45285;BME280;31026;43.780;25.948;2023-12-20T02:52:39;100956.91;;;19.54;58.41
45285;BME280;31026;43.780;25.948;2023-12-20T02:55:08;100954.81;;;19.58;58.36
45285;BME280;31026;43.780;25.948;2023-12-20T02:57:39;100946.75;;;19.58;58.26
45285;BME280;31026;43.780;25.948;2023-12-20T03:00:08;100957.06;;;19.62;58.12
45285;BME280;31026;43.780;25.948;2023-12-20T03:02:36;100948.44;;;19.90;57.49
45285;BME280;31026;43.780;25.948;2023-12-20T03:05:05;100961.16;;;19.88;57.52
45285;BME280;31026;43.780;25.948;2023-12-20T03:07:33;100953.25;;;19.86;57.55
45285;BME280;31026;43.780;25.948;2023-12-20T03:10:02;100962.22;;;20.16;57.01
45285;BME280;31026;43.780;25.948;2023-12-20T03:12:31;100955.78;;;19.97;57.34
45285;BME280;31026;43.780;25.948;2023-12-20T03:15:02;100939.78;;;19.76;57.89
45285;BME280;31026;43.780;25.948;2023-12-20T03:17:30;100955.81;;;20.07;57.09
45285;BME280;31026;43.780;25.948;2023-12-20T03:19:59;100943.34;;;19.86;57.55
45285;BME280;31026;43.780;25.948;2023-12-20T03:22:27;100940.66;;;19.86;57.45
45285;BME280;31026;43.780;25.948;2023-12-20T03:24:55;100935.19;;;19.98;57.12
45285;BME280;31026;43.780;25.948;2023-12-20T03:27:24;100926.13;;;19.89;57.54
45285;BME280;31026;43.780;25.948;2023-12-20T03:29:52;100929.53;;;20.01;57.31
45285;BME280;31026;43.780;25.948;2023-12-20T03:32:23;100938.28;;;20.03;57.25
45285;BME280;31026;43.780;25.948;2023-12-20T03:34:51;100932.34;;;19.99;57.27
45285;BME280;31026;43.780;25.948;2023-12-20T03:37:20;100926.28;;;20.07;57.17
45285;BME280;31026;43.780;25.948;2023-12-20T03:39:48;100908.63;;;20.04;56.95
45285;BME280;31026;43.780;25.948;2023-12-20T03:42:16;100912.72;;;19.99;57.33
45285;BME280;31026;43.780;25.948;2023-12-20T03:44:44;100906.38;;;20.00;57.26
45285;BME280;31026;43.780;25.948;2023-12-20T03:47:13;100897.91;;;20.14;56.74
45285;BME280;31026;43.780;25.948;2023-12-20T03:49:44;100902.81;;;19.99;57.20
45285;BME280;31026;43.780;25.948;2023-12-20T03:52:12;100897.06;;;20.14;56.88
45285;BME280;31026;43.780;25.948;2023-12-20T03:54:40;100885.88;;;19.99;57.17
45285;BME280;31026;43.780;25.948;2023-12-20T03:57:09;100882.97;;;19.31;58.67
45285;BME280;31026;43.780;25.948;2023-12-20T03:59:38;100886.09;;;18.84;59.79
45285;BME280;31026;43.780;25.948;2023-12-20T04:02:06;100877.13;;;18.53;60.62
45285;BME280;31026;43.780;25.948;2023-12-20T04:04:34;100895.88;;;18.20;60.17
45285;BME280;31026;43.780;25.948;2023-12-20T04:07:05;100890.81;;;18.06;61.54
45285;BME280;31026;43.780;25.948;2023-12-20T04:09:33;100890.91;;;18.16;61.56
45285;BME280;31026;43.780;25.948;2023-12-20T04:12:02;100881.41;;;18.44;61.00
45285;BME280;31026;43.780;25.948;2023-12-20T04:14:31;100881.84;;;18.60;60.77
45285;BME280;31026;43.780;25.948;2023-12-20T04:16:59;100883.47;;;18.73;60.64
45285;BME280;31026;43.780;25.948;2023-12-20T04:19:27;100880.75;;;18.84;60.30
45285;BME280;31026;43.780;25.948;2023-12-20T04:21:55;100872.44;;;18.87;60.17
45285;BME280;31026;43.780;25.948;2023-12-20T04:24:26;100876.31;;;18.94;60.13
45285;BME280;31026;43.780;25.948;2023-12-20T04:26:55;100853.03;;;18.95;59.96
45285;BME280;31026;43.780;25.948;2023-12-20T04:29:23;100861.47;;;18.90;60.06
45285;BME280;31026;43.780;25.948;2023-12-20T04:31:51;100876.38;;;19.04;59.44
45285;BME280;31026;43.780;25.948;2023-12-20T04:34:20;100878.94;;;19.15;58.95
45285;BME280;31026;43.780;25.948;2023-12-20T04:36:48;100865.13;;;19.20;58.96
45285;BME280;31026;43.780;25.948;2023-12-20T04:39:17;100875.59;;;19.23;58.63
45285;BME280;31026;43.780;25.948;2023-12-20T04:41:47;100856.41;;;19.27;58.40
45285;BME280;31026;43.780;25.948;2023-12-20T04:44:16;100863.19;;;19.22;58.44
45285;BME280;31026;43.780;25.948;2023-12-20T04:46:44;100854.28;;;19.21;58.64
45285;BME280;31026;43.780;25.948;2023-12-20T04:49:12;100856.13;;;19.21;59.16
45285;BME280;31026;43.780;25.948;2023-12-20T04:51:41;100846.22;;;19.21;58.94
45285;BME280;31026;43.780;25.948;2023-12-20T04:54:09;100846.06;;;19.13;59.17
45285;BME280;31026;43.780;25.948;2023-12-20T04:56:38;100854.59;;;18.97;59.74
45285;BME280;31026;43.780;25.948;2023-12-20T04:59:09;100867.25;;;19.16;59.56
45285;BME280;31026;43.780;25.948;2023-12-20T05:01:38;100849.81;;;19.01;59.94
45285;BME280;31026;43.780;25.948;2023-12-20T05:04:07;100845.19;;;18.82;59.64
45285;BME280;31026;43.780;25.948;2023-12-20T05:06:35;100839.94;;;19.01;59.64
45285;BME280;31026;43.780;25.948;2023-12-20T05:09:03;100854.22;;;19.12;59.33
45285;BME280;31026;43.780;25.948;2023-12-20T05:11:31;100847.63;;;19.16;58.91
45285;BME280;31026;43.780;25.948;2023-12-20T05:14:00;100859.94;;;19.18;58.79
45285;BME280;31026;43.780;25.948;2023-12-20T05:16:31;100845.94;;;19.15;58.95
45285;BME280;31026;43.780;25.948;2023-12-20T05:18:59;100844.50;;;19.11;59.11
45285;BME280;31026;43.780;25.948;2023-12-20T05:21:31;100834.59;;;19.01;59.10
45285;BME280;31026;43.780;25.948;2023-12-20T05:24:01;100846.19;;;19.12;59.03
45285;BME280;31026;43.780;25.948;2023-12-20T05:26:29;100831.44;;;19.27;58.67
45285;BME280;31026;43.780;25.948;2023-12-20T05:28:57;100831.44;;;19.27;58.54
45285;BME280;31026;43.780;25.948;2023-12-20T05:31:26;100835.38;;;19.23;58.54
45285;BME280;31026;43.780;25.948;2023-12-20T05:33:57;100828.13;;;19.14;58.97
45285;BME280;31026;43.780;25.948;2023-12-20T05:36:25;100834.41;;;19.24;58.82
45285;BME280;31026;43.780;25.948;2023-12-20T05:38:53;100831.88;;;19.22;58.42
45285;BME280;31026;43.780;25.948;2023-12-20T05:41:22;100832.88;;;19.31;58.09
45285;BME280;31026;43.780;25.948;2023-12-20T05:43:50;100822.44;;;19.28;57.85
45285;BME280;31026;43.780;25.948;2023-12-20T05:46:18;100829.91;;;19.24;57.39
45285;BME280;31026;43.780;25.948;2023-12-20T05:48:47;100827.38;;;19.33;57.72
45285;BME280;31026;43.780;25.948;2023-12-20T05:51:19;100825.16;;;19.38;57.38
45285;BME280;31026;43.780;25.948;2023-12-20T05:53:47;100820.31;;;19.22;57.90
45285;BME280;31026;43.780;25.948;2023-12-20T05:56:16;100825.91;;;19.19;57.51
45285;BME280;31026;43.780;25.948;2023-12-20T05:58:44;100836.94;;;19.25;57.06
45285;BME280;31026;43.780;25.948;2023-12-20T06:01:12;100827.16;;;19.15;57.49
45285;BME280;31026;43.780;25.948;2023-12-20T06:03:42;100814.31;;;19.08;57.13
45285;BME280;31026;43.780;25.948;2023-12-20T06:06:11;100822.44;;;18.97;57.14
45285;BME280;31026;43.780;25.948;2023-12-20T06:08:42;100820.81;;;19.06;56.96
45285;BME280;31026;43.780;25.948;2023-12-20T06:11:11;100827.53;;;19.00;57.30
45285;BME280;31026;43.780;25.948;2023-12-20T06:13:40;100829.41;;;19.10;57.11
45285;BME280;31026;43.780;25.948;2023-12-20T06:16:08;100824.03;;;19.10;57.08
45285;BME280;31026;43.780;25.948;2023-12-20T06:18:36;100820.50;;;19.09;57.22
45285;BME280;31026;43.780;25.948;2023-12-20T06:21:05;100828.31;;;19.12;57.06
45285;BME280;31026;43.780;25.948;2023-12-20T06:23:33;100823.19;;;19.09;57.25
45285;BME280;31026;43.780;25.948;2023-12-20T06:26:04;100821.63;;;19.06;57.13
45285;BME280;31026;43.780;25.948;2023-12-20T06:28:32;100829.84;;;19.15;56.05
45285;BME280;31026;43.780;25.948;2023-12-20T06:31:01;100831.81;;;19.13;56.20
45285;BME280;31026;43.780;25.948;2023-12-20T06:33:29;100821.34;;;19.10;56.40
45285;BME280;31026;43.780;25.948;2023-12-20T06:35:57;100815.44;;;19.06;56.80
45285;BME280;31026;43.780;25.948;2023-12-20T06:38:26;100813.19;;;19.11;56.71
45285;BME280;31026;43.780;25.948;2023-12-20T06:40:54;100814.91;;;19.12;56.75
45285;BME280;31026;43.780;25.948;2023-12-20T06:43:26;100808.94;;;19.08;56.71
45285;BME280;31026;43.780;25.948;2023-12-20T06:45:55;100827.88;;;19.17;56.59
45285;BME280;31026;43.780;25.948;2023-12-20T06:48:23;100800.38;;;19.15;56.88
45285;BME280;31026;43.780;25.948;2023-12-20T06:50:52;100800.38;;;19.15;57.05
45285;BME280;31026;43.780;25.948;2023-12-20T06:53:21;100813.06;;;19.13;56.84
45285;BME280;31026;43.780;25.948;2023-12-20T06:55:49;100796.13;;;19.12;57.23
45285;BME280;31026;43.780;25.948;2023-12-20T06:58:17;100813.09;;;19.22;56.68
45285;BME280;31026;43.780;25.948;2023-12-20T07:00:48;100805.28;;;19.10;57.19
45285;BME280;31026;43.780;25.948;2023-12-20T07:03:16;100810.41;;;19.22;56.83
45285;BME280;31026;43.780;25.948;2023-12-20T07:05:45;100842.97;;;19.08;57.16
45285;BME280;31026;43.780;25.948;2023-12-20T07:08:13;100783.81;;;18.79;57.71
45285;BME280;31026;43.780;25.948;2023-12-20T07:10:42;100813.47;;;18.56;58.56
45285;BME280;31026;43.780;25.948;2023-12-20T07:13:10;100793.50;;;18.28;58.99
45285;BME280;31026;43.780;25.948;2023-12-20T07:15:39;100795.59;;;18.03;58.41
45285;BME280;31026;43.780;25.948;2023-12-20T07:18:10;100798.66;;;17.99;59.57
45285;BME280;31026;43.780;25.948;2023-12-20T07:20:38;100788.41;;;18.46;58.77
45285;BME280;31026;43.780;25.948;2023-12-20T07:23:07;100793.81;;;18.77;58.46
45285;BME280;31026;43.780;25.948;2023-12-20T07:25:35;100776.63;;;19.00;57.89
45285;BME280;31026;43.780;25.948;2023-12-20T07:28:03;100778.31;;;19.01;57.69
45285;BME280;31026;43.780;25.948;2023-12-20T07:30:32;100779.38;;;18.68;58.60
45285;BME280;31026;43.780;25.948;2023-12-20T07:33:00;100769.63;;;18.36;59.04
45285;BME280;31026;43.780;25.948;2023-12-20T07:35:31;100767.41;;;18.20;59.49
45285;BME280;31026;43.780;25.948;2023-12-20T07:37:59;100764.94;;;18.07;59.82
45285;BME280;31026;43.780;25.948;2023-12-20T07:40:28;100763.47;;;18.45;59.08
45285;BME280;31026;43.780;25.948;2023-12-20T07:42:56;100752.19;;;18.94;57.91
45285;BME280;31026;43.780;25.948;2023-12-20T07:45:24;100750.50;;;18.93;58.10
45285;BME280;31026;43.780;25.948;2023-12-20T07:47:53;100745.81;;;18.64;58.55
45285;BME280;31026;43.780;25.948;2023-12-20T07:50:21;100759.38;;;18.41;59.15
45285;BME280;31026;43.780;25.948;2023-12-20T07:52:52;100748.81;;;18.19;59.64
45285;BME280;31026;43.780;25.948;2023-12-20T07:55:20;100741.84;;;18.06;60.01
45285;BME280;31026;43.780;25.948;2023-12-20T07:57:49;100750.13;;;18.24;59.82
45285;BME280;31026;43.780;25.948;2023-12-20T08:00:17;100749.69;;;18.50;59.31
45285;BME280;31026;43.780;25.948;2023-12-20T08:02:46;100747.13;;;18.69;58.83
45285;BME280;31026;43.780;25.948;2023-12-20T08:05:14;100738.06;;;18.92;58.32
45285;BME280;31026;43.780;25.948;2023-12-20T08:07:42;100736.97;;;18.94;58.19
45285;BME280;31026;43.780;25.948;2023-12-20T08:10:13;100751.91;;;18.97;58.17
45285;BME280;31026;43.780;25.948;2023-12-20T08:12:43;100739.19;;;18.89;58.16
45285;BME280;31026;43.780;25.948;2023-12-20T08:15:11;100755.91;;;19.02;58.28
45285;BME280;31026;43.780;25.948;2023-12-20T08:17:40;100748.94;;;18.90;58.31
45285;BME280;31026;43.780;25.948;2023-12-20T08:20:08;100742.13;;;18.86;58.52
45285;BME280;31026;43.780;25.948;2023-12-20T08:22:36;100761.34;;;18.91;58.30
45285;BME280;31026;43.780;25.948;2023-12-20T08:25:05;100736.97;;;18.94;58.18
45285;BME280;31026;43.780;25.948;2023-12-20T08:27:38;100737.09;;;18.93;58.35
45285;BME280;31026;43.780;25.948;2023-12-20T08:30:07;100719.19;;;18.93;58.25
45285;BME280;31026;43.780;25.948;2023-12-20T08:32:36;100717.22;;;18.95;58.13
45285;BME280;31026;43.780;25.948;2023-12-20T08:35:04;100701.41;;;19.02;58.20
45285;BME280;31026;43.780;25.948;2023-12-20T08:37:33;100707.09;;;19.08;57.99
45285;BME280;31026;43.780;25.948;2023-12-20T08:40:01;100696.53;;;19.17;57.67
45285;BME280;31026;43.780;25.948;2023-12-20T08:42:29;100703.28;;;19.11;57.84
45285;BME280;31026;43.780;25.948;2023-12-20T08:45:00;100689.63;;;19.14;57.88
45285;BME280;31026;43.780;25.948;2023-12-20T08:47:29;100688.50;;;19.17;57.59
45285;BME280;31026;43.780;25.948;2023-12-20T08:49:58;100699.47;;;19.14;57.62
45285;BME280;31026;43.780;25.948;2023-12-20T08:52:27;100684.53;;;19.21;57.52
45285;BME280;31026;43.780;25.948;2023-12-20T08:54:55;100681.41;;;19.16;57.47
45285;BME280;31026;43.780;25.948;2023-12-20T08:57:23;100679.19;;;19.31;57.48
45285;BME280;31026;43.780;25.948;2023-12-20T08:59:51;100680.34;;;19.28;57.42
45285;BME280;31026;43.780;25.948;2023-12-20T09:02:22;100653.06;;;19.13;57.74
45285;BME280;31026;43.780;25.948;2023-12-20T09:04:51;100669.25;;;18.82;58.51
45285;BME280;31026;43.780;25.948;2023-12-20T09:07:22;100659.22;;;18.54;59.20
45285;BME280;31026;43.780;25.948;2023-12-20T09:09:54;100648.72;;;18.31;59.42
45285;BME280;31026;43.780;25.948;2023-12-20T09:12:23;100638.78;;;18.22;59.88
45285;BME280;31026;43.780;25.948;2023-12-20T09:14:51;100637.38;;;18.18;59.90
45285;BME280;31026;43.780;25.948;2023-12-20T09:17:19;100632.72;;;18.51;59.14
45285;BME280;31026;43.780;25.948;2023-12-20T09:19:51;100627.88;;;18.75;58.46
45285;BME280;31026;43.780;25.948;2023-12-20T09:22:19;100639.66;;;19.03;57.83
45285;BME280;31026;43.780;25.948;2023-12-20T09:24:48;100632.00;;;18.89;58.08
45285;BME280;31026;43.780;25.948;2023-12-20T09:27:16;100624.03;;;18.58;59.12
45285;BME280;31026;43.780;25.948;2023-12-20T09:29:45;100620.56;;;18.37;59.82
45285;BME280;31026;43.780;25.948;2023-12-20T09:32:13;100607.56;;;18.22;60.21
45285;BME280;31026;43.780;25.948;2023-12-20T09:34:42;100595.97;;;18.22;60.62
45285;BME280;31026;43.780;25.948;2023-12-20T09:37:13;100597.28;;;18.27;60.54
45285;BME280;31026;43.780;25.948;2023-12-20T09:39:41;100586.31;;;18.81;59.34
45285;BME280;31026;43.780;25.948;2023-12-20T09:42:10;100578.59;;;19.17;58.54
45285;BME280;31026;43.780;25.948;2023-12-20T09:44:39;100551.06;;;19.15;58.64
45285;BME280;31026;43.780;25.948;2023-12-20T09:47:09;100559.13;;;18.95;59.32
45285;BME280;31026;43.780;25.948;2023-12-20T09:49:38;100544.53;;;18.68;59.89
45285;BME280;31026;43.780;25.948;2023-12-20T09:52:06;100537.72;;;18.45;60.63
45285;BME280;31026;43.780;25.948;2023-12-20T09:54:38;100537.69;;;18.35;60.91
45285;BME280;31026;43.780;25.948;2023-12-20T09:57:06;100559.09;;;18.25;61.23
45285;BME280;31026;43.780;25.948;2023-12-20T09:59:35;100530.09;;;18.31;61.14
45285;BME280;31026;43.780;25.948;2023-12-20T10:02:04;100521.28;;;18.79;60.03
45285;BME280;31026;43.780;25.948;2023-12-20T10:04:37;100510.75;;;19.16;59.10
45285;BME280;31026;43.780;25.948;2023-12-20T10:07:05;100507.88;;;19.18;59.27
45285;BME280;31026;43.780;25.948;2023-12-20T10:09:34;100507.34;;;18.85;59.90
45285;BME280;31026;43.780;25.948;2023-12-20T10:12:05;100505.03;;;18.51;60.38
45285;BME280;31026;43.780;25.948;2023-12-20T10:14:34;100507.56;;;18.43;60.74
45285;BME280;31026;43.780;25.948;2023-12-20T10:17:02;100485.16;;;18.44;60.74
45285;BME280;31026;43.780;25.948;2023-12-20T10:19:31;100484.06;;;18.46;61.10
45285;BME280;31026;43.780;25.948;2023-12-20T10:21:59;100478.81;;;18.45;61.11
45285;BME280;31026;43.780;25.948;2023-12-20T10:24:28;100465.28;;;18.37;61.25
45285;BME280;31026;43.780;25.948;2023-12-20T10:27:05;100460.66;;;18.58;60.48
45285;BME280;31026;43.780;25.948;2023-12-20T10:29:34;100466.47;;;18.93;59.63
45285;BME280;31026;43.780;25.948;2023-12-20T10:34:45;100453.22;;;18.91;59.68
45285;BME280;31026;43.780;25.948;2023-12-20T10:37:13;100451.50;;;18.71;60.00
45285;BME280;31026;43.780;25.948;2023-12-20T10:39:42;100450.22;;;18.55;60.47
45285;BME280;31026;43.780;25.948;2023-12-20T10:42:13;100435.84;;;18.37;61.12
45285;BME280;31026;43.780;25.948;2023-12-20T10:44:42;100421.31;;;18.39;60.96
45285;BME280;31026;43.780;25.948;2023-12-20T10:47:11;100424.59;;;18.62;60.62
45285;BME280;31026;43.780;25.948;2023-12-20T10:49:40;100422.91;;;18.91;59.78
45285;BME280;31026;43.780;25.948;2023-12-20T10:52:08;100418.03;;;19.14;59.32
45285;BME280;31026;43.780;25.948;2023-12-20T10:54:37;100410.34;;;18.91;59.90
45285;BME280;31026;43.780;25.948;2023-12-20T10:57:05;100419.34;;;18.61;60.34
45285;BME280;31026;43.780;25.948;2023-12-20T10:59:37;100419.06;;;18.54;60.79
45285;BME280;31026;43.780;25.948;2023-12-20T11:02:05;100411.19;;;18.43;61.00
45285;BME280;31026;43.780;25.948;2023-12-20T11:04:40;100403.41;;;18.40;61.03
45285;BME280;31026;43.780;25.948;2023-12-20T11:07:16;100401.31;;;18.53;60.82
45285;BME280;31026;43.780;25.948;2023-12-20T11:09:49;100390.47;;;18.74;60.29
45285;BME280;31026;43.780;25.948;2023-12-20T11:12:25;100390.31;;;18.95;59.88
45285;BME280;31026;43.780;25.948;2023-12-20T11:14:59;100399.34;;;18.84;59.94
45285;BME280;31026;43.780;25.948;2023-12-20T11:17:29;100381.75;;;18.53;60.69
45285;BME280;31026;43.780;25.948;2023-12-20T11:20:04;100385.81;;;18.37;61.15
45285;BME280;31026;43.780;25.948;2023-12-20T11:22:33;100377.91;;;18.36;61.06
45285;BME280;31026;43.780;25.948;2023-12-20T11:25:03;100379.63;;;18.37;60.98
45285;BME280;31026;43.780;25.948;2023-12-20T11:27:33;100367.22;;;18.84;60.03
45285;BME280;31026;43.780;25.948;2023-12-20T11:30:05;100380.06;;;19.28;58.96
45285;BME280;31026;43.780;25.948;2023-12-20T11:32:35;100366.94;;;19.25;58.99
45285;BME280;31026;43.780;25.948;2023-12-20T11:35:16;100358.28;;;18.94;59.90
45285;BME280;31026;43.780;25.948;2023-12-20T11:37:45;100352.78;;;18.76;60.34
45285;BME280;31026;43.780;25.948;2023-12-20T11:40:15;100371.44;;;18.58;61.04
45285;BME280;31026;43.780;25.948;2023-12-20T11:42:44;100346.38;;;18.49;61.17
45285;BME280;31026;43.780;25.948;2023-12-20T11:45:15;100341.84;;;18.40;60.64
45285;BME280;31026;43.780;25.948;2023-12-20T11:47:45;100332.53;;;18.63;60.15
45285;BME280;31026;43.780;25.948;2023-12-20T11:50:15;100315.00;;;18.98;59.50
45285;BME280;31026;43.780;25.948;2023-12-20T11:52:43;100331.28;;;19.15;59.30
45285;BME280;31026;43.780;25.948;2023-12-20T11:55:12;100318.97;;;18.94;60.54
45285;BME280;31026;43.780;25.948;2023-12-20T11:57:41;100319.84;;;18.65;62.24
45285;BME280;31026;43.780;25.948;2023-12-20T12:00:10;100307.03;;;18.49;63.26
45285;BME280;31026;43.780;25.948;2023-12-20T12:02:41;100317.50;;;18.33;64.11
45285;BME280;31026;43.780;25.948;2023-12-20T12:05:09;100296.78;;;18.25;64.25
45285;BME280;31026;43.780;25.948;2023-12-20T12:07:38;100300.81;;;18.59;64.51
45285;BME280;31026;43.780;25.948;2023-12-20T12:10:07;100286.50;;;18.97;63.54
45285;BME280;31026;43.780;25.948;2023-12-20T12:12:35;100266.16;;;19.04;63.47
45285;BME280;31026;43.780;25.948;2023-12-20T12:15:05;100277.97;;;18.74;63.84
45285;BME280;31026;43.780;25.948;2023-12-20T12:17:34;100270.81;;;18.55;64.53
45285;BME280;31026;43.780;25.948;2023-12-20T12:20:06;100265.22;;;18.39;64.96
45285;BME280;31026;43.780;25.948;2023-12-20T12:22:35;100264.38;;;18.28;64.94
45285;BME280;31026;43.780;25.948;2023-12-20T12:25:10;100276.50;;;18.42;64.68
45285;BME280;31026;43.780;25.948;2023-12-20T12:27:39;100274.72;;;18.71;64.06
45285;BME280;31026;43.780;25.948;2023-12-20T12:30:08;100277.31;;;19.00;63.24
45285;BME280;31026;43.780;25.948;2023-12-20T12:32:38;100269.91;;;18.84;63.43
45285;BME280;31026;43.780;25.948;2023-12-20T12:35:09;100275.91;;;18.58;64.09
45285;BME280;31026;43.780;25.948;2023-12-20T12:37:38;100281.56;;;18.36;64.17
45285;BME280;31026;43.780;25.948;2023-12-20T12:40:09;100281.28;;;18.19;64.60
45285;BME280;31026;43.780;25.948;2023-12-20T12:42:38;100285.50;;;18.12;64.80
45285;BME280;31026;43.780;25.948;2023-12-20T12:45:06;100290.28;;;18.38;64.34
45285;BME280;31026;43.780;25.948;2023-12-20T12:47:35;100258.38;;;18.64;63.41
45285;BME280;31026;43.780;25.948;2023-12-20T12:50:03;100272.72;;;18.92;62.79
45285;BME280;31026;43.780;25.948;2023-12-20T12:52:34;100264.56;;;18.74;62.83